Colp, Illinois
Current Conditions -  °F | °C
As of 11:49 AM on Thursday 18 Dec 2014 (Local Time) from KMWA Reporting Station
Light Snow Light Snow  
Wind Chill: 30°   Ceiling: 700
Heat Index: 34°   Visibility: 4mi
Dew Point: 32°   Wind: 5mph
Humidity: 93%   Direction: 90°E
Pressure: 30.29"   Gusts: NA
Location:  37.81°N, 89.08°W
Report Text: KMWA 181749Z 09004KT 4SM -SN BKN007 OVC036 01/00 A3029
Loading
Personal Weather Stations






























Interactive Weather Map New forecast layout! Learn more

10-Day Weather Forecast

Advertisements
Track Severe Weather on mobile